sensor_id;sensor_type;location;lat;lon;timestamp;P1;P2;P0
72793;PMS5003;63436;26.334;50.194;2023-03-03T00:01:12;99;98;
72793;PMS5003;63436;26.334;50.194;2023-03-03T00:03:37;97;97;
72793;PMS5003;63436;26.334;50.194;2023-03-03T00:06:03;98;94;
72793;PMS5003;63436;26.334;50.194;2023-03-03T00:08:28;107;102;
72793;PMS5003;63436;26.334;50.194;2023-03-03T00:10:53;101;98;
72793;PMS5003;63436;26.334;50.194;2023-03-03T00:13:20;109;100;
72793;PMS5003;63436;26.334;50.194;2023-03-03T00:15:44;100;96;
72793;PMS5003;63436;26.334;50.194;2023-03-03T00:18:17;114;103;
72793;PMS5003;63436;26.334;50.194;2023-03-03T00:20:36;105;99;
72793;PMS5003;63436;26.334;50.194;2023-03-03T00:23:12;107;102;
72793;PMS5003;63436;26.334;50.194;2023-03-03T00:25:27;114;108;
72793;PMS5003;63436;26.334;50.194;2023-03-03T00:27:52;108;105;
72793;PMS5003;63436;26.334;50.194;2023-03-03T00:30:19;108;104;
72793;PMS5003;63436;26.334;50.194;2023-03-03T00:32:43;110;106;
72793;PMS5003;63436;26.334;50.194;2023-03-03T00:37:34;115;112;
72793;PMS5003;63436;26.334;50.194;2023-03-03T00:40:10;112;107;
72793;PMS5003;63436;26.334;50.194;2023-03-03T00:42:25;110;110;
72793;PMS5003;63436;26.334;50.194;2023-03-03T00:44:55;116;114;
72793;PMS5003;63436;26.334;50.194;2023-03-03T00:47:21;117;115;
72793;PMS5003;63436;26.334;50.194;2023-03-03T00:49:41;117;111;
72793;PMS5003;63436;26.334;50.194;2023-03-03T00:52:11;109;109;
72793;PMS5003;63436;26.334;50.194;2023-03-03T00:54:31;126;118;
72793;PMS5003;63436;26.334;50.194;2023-03-03T00:56:56;116;109;
72793;PMS5003;63436;26.334;50.194;2023-03-03T00:59:22;116;115;
72793;PMS5003;63436;26.334;50.194;2023-03-03T01:01:48;127;117;
72793;PMS5003;63436;26.334;50.194;2023-03-03T01:04:13;120;113;
72793;PMS5003;63436;26.334;50.194;2023-03-03T01:06:38;123;120;
72793;PMS5003;63436;26.334;50.194;2023-03-03T01:09:03;117;112;
72793;PMS5003;63436;26.334;50.194;2023-03-03T01:11:29;114;112;
72793;PMS5003;63436;26.334;50.194;2023-03-03T01:14:00;125;112;
72793;PMS5003;63436;26.334;50.194;2023-03-03T01:16:20;118;113;
72793;PMS5003;63436;26.334;50.194;2023-03-03T01:18:45;125;119;
72793;PMS5003;63436;26.334;50.194;2023-03-03T01:21:11;137;127;
72793;PMS5003;63436;26.334;50.194;2023-03-03T01:23:36;136;126;
72793;PMS5003;63436;26.334;50.194;2023-03-03T01:26:02;128;119;
72793;PMS5003;63436;26.334;50.194;2023-03-03T01:28:27;132;123;
72793;PMS5003;63436;26.334;50.194;2023-03-03T01:30:52;127;123;
72793;PMS5003;63436;26.334;50.194;2023-03-03T01:33:18;127;120;
72793;PMS5003;63436;26.334;50.194;2023-03-03T01:35:44;125;122;
72793;PMS5003;63436;26.334;50.194;2023-03-03T01:38:09;134;128;
72793;PMS5003;63436;26.334;50.194;2023-03-03T01:40:35;129;125;
72793;PMS5003;63436;26.334;50.194;2023-03-03T01:43:01;130;129;
72793;PMS5003;63436;26.334;50.194;2023-03-03T01:45:26;140;137;
72793;PMS5003;63436;26.334;50.194;2023-03-03T01:47:53;128;124;
72793;PMS5003;63436;26.334;50.194;2023-03-03T01:50:20;130;126;
72793;PMS5003;63436;26.334;50.194;2023-03-03T01:52:43;131;126;
72793;PMS5003;63436;26.334;50.194;2023-03-03T01:55:10;129;127;
72793;PMS5003;63436;26.334;50.194;2023-03-03T01:57:34;139;134;
72793;PMS5003;63436;26.334;50.194;2023-03-03T01:59:58;129;128;
72793;PMS5003;63436;26.334;50.194;2023-03-03T02:02:24;132;125;
72793;PMS5003;63436;26.334;50.194;2023-03-03T02:04:50;129;124;
72793;PMS5003;63436;26.334;50.194;2023-03-03T02:07:15;127;126;
72793;PMS5003;63436;26.334;50.194;2023-03-03T02:09:45;124;119;
72793;PMS5003;63436;26.334;50.194;2023-03-03T02:12:08;122;115;
72793;PMS5003;63436;26.334;50.194;2023-03-03T02:14:32;125;125;
72793;PMS5003;63436;26.334;50.194;2023-03-03T02:16:57;126;123;
72793;PMS5003;63436;26.334;50.194;2023-03-03T02:19:24;140;131;
72793;PMS5003;63436;26.334;50.194;2023-03-03T02:21:48;138;135;
72793;PMS5003;63436;26.334;50.194;2023-03-03T02:24:15;128;125;
72793;PMS5003;63436;26.334;50.194;2023-03-03T02:26:39;124;120;
72793;PMS5003;63436;26.334;50.194;2023-03-03T02:29:04;127;122;
72793;PMS5003;63436;26.334;50.194;2023-03-03T02:31:30;122;116;
72793;PMS5003;63436;26.334;50.194;2023-03-03T02:33:56;124;119;
72793;PMS5003;63436;26.334;50.194;2023-03-03T02:36:22;125;118;
72793;PMS5003;63436;26.334;50.194;2023-03-03T02:38:49;119;113;
72793;PMS5003;63436;26.334;50.194;2023-03-03T02:41:14;108;106;
72793;PMS5003;63436;26.334;50.194;2023-03-03T02:43:40;113;109;
72793;PMS5003;63436;26.334;50.194;2023-03-03T02:46:03;122;115;
72793;PMS5003;63436;26.334;50.194;2023-03-03T02:48:28;111;107;
72793;PMS5003;63436;26.334;50.194;2023-03-03T02:50:54;116;112;
72793;PMS5003;63436;26.334;50.194;2023-03-03T02:53:19;122;116;
72793;PMS5003;63436;26.334;50.194;2023-03-03T02:55:44;115;110;
72793;PMS5003;63436;26.334;50.194;2023-03-03T02:58:10;111;108;
72793;PMS5003;63436;26.334;50.194;2023-03-03T03:00:36;111;107;
72793;PMS5003;63436;26.334;50.194;2023-03-03T03:03:02;109;107;
72793;PMS5003;63436;26.334;50.194;2023-03-03T03:05:27;112;104;
72793;PMS5003;63436;26.334;50.194;2023-03-03T03:07:52;119;117;
72793;PMS5003;63436;26.334;50.194;2023-03-03T03:10:18;115;113;
72793;PMS5003;63436;26.334;50.194;2023-03-03T03:12:43;112;109;
72793;PMS5003;63436;26.334;50.194;2023-03-03T03:15:09;131;126;
72793;PMS5003;63436;26.334;50.194;2023-03-03T03:17:35;125;117;
72793;PMS5003;63436;26.334;50.194;2023-03-03T03:19:59;115;112;
72793;PMS5003;63436;26.334;50.194;2023-03-03T03:22:25;128;121;
72793;PMS5003;63436;26.334;50.194;2023-03-03T03:24:50;120;113;
72793;PMS5003;63436;26.334;50.194;2023-03-03T03:27:16;124;115;
72793;PMS5003;63436;26.334;50.194;2023-03-03T03:29:42;114;109;
72793;PMS5003;63436;26.334;50.194;2023-03-03T03:32:07;118;115;
72793;PMS5003;63436;26.334;50.194;2023-03-03T03:34:32;116;110;
72793;PMS5003;63436;26.334;50.194;2023-03-03T03:36:58;114;109;
72793;PMS5003;63436;26.334;50.194;2023-03-03T03:39:23;111;106;
72793;PMS5003;63436;26.334;50.194;2023-03-03T03:41:48;117;114;
72793;PMS5003;63436;26.334;50.194;2023-03-03T03:44:14;112;108;
72793;PMS5003;63436;26.334;50.194;2023-03-03T03:46:39;113;108;
72793;PMS5003;63436;26.334;50.194;2023-03-03T03:49:05;109;104;
72793;PMS5003;63436;26.334;50.194;2023-03-03T03:51:30;115;107;
72793;PMS5003;63436;26.334;50.194;2023-03-03T03:53:56;117;112;
72793;PMS5003;63436;26.334;50.194;2023-03-03T03:56:21;114;109;
72793;PMS5003;63436;26.334;50.194;2023-03-03T03:58:46;112;102;
72793;PMS5003;63436;26.334;50.194;2023-03-03T04:01:13;106;104;
72793;PMS5003;63436;26.334;50.194;2023-03-03T04:03:38;110;103;
72793;PMS5003;63436;26.334;50.194;2023-03-03T04:06:03;118;109;
72793;PMS5003;63436;26.334;50.194;2023-03-03T04:08:39;118;106;
72793;PMS5003;63436;26.334;50.194;2023-03-03T04:10:55;105;104;
72793;PMS5003;63436;26.334;50.194;2023-03-03T04:13:20;108;104;
72793;PMS5003;63436;26.334;50.194;2023-03-03T04:15:46;108;103;
72793;PMS5003;63436;26.334;50.194;2023-03-03T04:18:11;109;104;
72793;PMS5003;63436;26.334;50.194;2023-03-03T04:20:36;108;101;
72793;PMS5003;63436;26.334;50.194;2023-03-03T04:23:02;113;103;
72793;PMS5003;63436;26.334;50.194;2023-03-03T04:25:28;107;102;
72793;PMS5003;63436;26.334;50.194;2023-03-03T04:27:53;105;99;
72793;PMS5003;63436;26.334;50.194;2023-03-03T04:30:19;115;106;
72793;PMS5003;63436;26.334;50.194;2023-03-03T04:32:44;104;100;
72793;PMS5003;63436;26.334;50.194;2023-03-03T04:35:09;109;108;
72793;PMS5003;63436;26.334;50.194;2023-03-03T04:37:35;103;98;
72793;PMS5003;63436;26.334;50.194;2023-03-03T04:40:01;112;102;
72793;PMS5003;63436;26.334;50.194;2023-03-03T04:42:26;106;101;
72793;PMS5003;63436;26.334;50.194;2023-03-03T04:44:52;101;97;
72793;PMS5003;63436;26.334;50.194;2023-03-03T04:47:17;97;92;
72793;PMS5003;63436;26.334;50.194;2023-03-03T04:49:48;93;88;
72793;PMS5003;63436;26.334;50.194;2023-03-03T04:52:08;92;86;
72793;PMS5003;63436;26.334;50.194;2023-03-03T04:54:33;94;86;
72793;PMS5003;63436;26.334;50.194;2023-03-03T04:56:59;83;76;
72793;PMS5003;63436;26.334;50.194;2023-03-03T04:59:24;77;76;
72793;PMS5003;63436;26.334;50.194;2023-03-03T05:01:50;86;78;
72793;PMS5003;63436;26.334;50.194;2023-03-03T05:04:16;74;70;
72793;PMS5003;63436;26.334;50.194;2023-03-03T05:06:41;90;85;
72793;PMS5003;63436;26.334;50.194;2023-03-03T05:09:07;85;80;
72793;PMS5003;63436;26.334;50.194;2023-03-03T05:11:32;86;77;
72793;PMS5003;63436;26.334;50.194;2023-03-03T05:13:58;68;63;
72793;PMS5003;63436;26.334;50.194;2023-03-03T05:16:24;69;63;
72793;PMS5003;63436;26.334;50.194;2023-03-03T05:18:49;78;74;
72793;PMS5003;63436;26.334;50.194;2023-03-03T05:21:14;80;71;
72793;PMS5003;63436;26.334;50.194;2023-03-03T05:23:40;69;67;
72793;PMS5003;63436;26.334;50.194;2023-03-03T05:26:05;71;64;
72793;PMS5003;63436;26.334;50.194;2023-03-03T05:28:30;65;64;
72793;PMS5003;63436;26.334;50.194;2023-03-03T05:30:56;63;62;
72793;PMS5003;63436;26.334;50.194;2023-03-03T05:33:21;60;59;
72793;PMS5003;63436;26.334;50.194;2023-03-03T05:35:46;64;63;
72793;PMS5003;63436;26.334;50.194;2023-03-03T05:38:12;66;64;
72793;PMS5003;63436;26.334;50.194;2023-03-03T05:40:38;57;54;
72793;PMS5003;63436;26.334;50.194;2023-03-03T05:43:03;62;60;
72793;PMS5003;63436;26.334;50.194;2023-03-03T05:45:29;62;54;
72793;PMS5003;63436;26.334;50.194;2023-03-03T05:47:53;59;55;
72793;PMS5003;63436;26.334;50.194;2023-03-03T05:50:19;51;48;
72793;PMS5003;63436;26.334;50.194;2023-03-03T05:52:46;62;60;
72793;PMS5003;63436;26.334;50.194;2023-03-03T05:55:11;59;58;
72793;PMS5003;63436;26.334;50.194;2023-03-03T05:57:36;65;60;
72793;PMS5003;63436;26.334;50.194;2023-03-03T06:00:02;61;58;
72793;PMS5003;63436;26.334;50.194;2023-03-03T06:02:26;61;57;
72793;PMS5003;63436;26.334;50.194;2023-03-03T06:04:52;62;59;
72793;PMS5003;63436;26.334;50.194;2023-03-03T06:07:18;62;61;
72793;PMS5003;63436;26.334;50.194;2023-03-03T06:09:43;64;59;
72793;PMS5003;63436;26.334;50.194;2023-03-03T06:12:09;62;60;
72793;PMS5003;63436;26.334;50.194;2023-03-03T06:14:35;59;58;
72793;PMS5003;63436;26.334;50.194;2023-03-03T06:17:00;61;58;
72793;PMS5003;63436;26.334;50.194;2023-03-03T06:19:26;57;56;
72793;PMS5003;63436;26.334;50.194;2023-03-03T06:21:51;57;54;
72793;PMS5003;63436;26.334;50.194;2023-03-03T06:24:16;66;61;
72793;PMS5003;63436;26.334;50.194;2023-03-03T06:26:42;55;53;
72793;PMS5003;63436;26.334;50.194;2023-03-03T06:29:08;66;61;
72793;PMS5003;63436;26.334;50.194;2023-03-03T06:31:33;59;56;
72793;PMS5003;63436;26.334;50.194;2023-03-03T06:33:58;55;54;
72793;PMS5003;63436;26.334;50.194;2023-03-03T06:36:24;61;59;
72793;PMS5003;63436;26.334;50.194;2023-03-03T06:38:50;58;54;
72793;PMS5003;63436;26.334;50.194;2023-03-03T06:41:15;63;59;
72793;PMS5003;63436;26.334;50.194;2023-03-03T06:43:40;58;53;
72793;PMS5003;63436;26.334;50.194;2023-03-03T06:46:06;61;57;
72793;PMS5003;63436;26.334;50.194;2023-03-03T06:48:33;55;54;
72793;PMS5003;63436;26.334;50.194;2023-03-03T06:50:57;59;56;
72793;PMS5003;63436;26.334;50.194;2023-03-03T06:53:24;63;59;
72793;PMS5003;63436;26.334;50.194;2023-03-03T06:55:49;60;58;
72793;PMS5003;63436;26.334;50.194;2023-03-03T06:58:15;68;66;
72793;PMS5003;63436;26.334;50.194;2023-03-03T07:00:40;72;69;
72793;PMS5003;63436;26.334;50.194;2023-03-03T07:05:30;73;72;
72793;PMS5003;63436;26.334;50.194;2023-03-03T07:07:56;85;79;
72793;PMS5003;63436;26.334;50.194;2023-03-03T07:10:22;80;78;
72793;PMS5003;63436;26.334;50.194;2023-03-03T07:12:46;80;76;
72793;PMS5003;63436;26.334;50.194;2023-03-03T07:15:14;89;81;
72793;PMS5003;63436;26.334;50.194;2023-03-03T07:17:37;77;70;
72793;PMS5003;63436;26.334;50.194;2023-03-03T07:20:07;91;79;
72793;PMS5003;63436;26.334;50.194;2023-03-03T07:22:27;89;84;
72793;PMS5003;63436;26.334;50.194;2023-03-03T07:24:54;85;81;
72793;PMS5003;63436;26.334;50.194;2023-03-03T07:27:23;92;84;
72793;PMS5003;63436;26.334;50.194;2023-03-03T07:29:46;92;88;
72793;PMS5003;63436;26.334;50.194;2023-03-03T07:32:20;88;79;
72793;PMS5003;63436;26.334;50.194;2023-03-03T07:34:37;86;80;
72793;PMS5003;63436;26.334;50.194;2023-03-03T07:37:03;81;74;
72793;PMS5003;63436;26.334;50.194;2023-03-03T07:39:30;85;81;
72793;PMS5003;63436;26.334;50.194;2023-03-03T07:41:53;92;80;
72793;PMS5003;63436;26.334;50.194;2023-03-03T07:44:19;82;75;
72793;PMS5003;63436;26.334;50.194;2023-03-03T07:46:48;82;77;
72793;PMS5003;63436;26.334;50.194;2023-03-03T07:49:15;76;72;
72793;PMS5003;63436;26.334;50.194;2023-03-03T07:51:36;83;74;
72793;PMS5003;63436;26.334;50.194;2023-03-03T07:54:10;78;74;
72793;PMS5003;63436;26.334;50.194;2023-03-03T07:56:28;78;72;
72793;PMS5003;63436;26.334;50.194;2023-03-03T07:58:51;80;75;
72793;PMS5003;63436;26.334;50.194;2023-03-03T08:03:42;76;74;
72793;PMS5003;63436;26.334;50.194;2023-03-03T08:06:10;80;73;
72793;PMS5003;63436;26.334;50.194;2023-03-03T08:08:33;91;84;
72793;PMS5003;63436;26.334;50.194;2023-03-03T08:10:59;101;90;
72793;PMS5003;63436;26.334;50.194;2023-03-03T08:13:25;83;77;
72793;PMS5003;63436;26.334;50.194;2023-03-03T08:15:50;74;70;
72793;PMS5003;63436;26.334;50.194;2023-03-03T08:18:17;72;69;
72793;PMS5003;63436;26.334;50.194;2023-03-03T08:20:42;77;70;
72793;PMS5003;63436;26.334;50.194;2023-03-03T08:23:06;74;68;
72793;PMS5003;63436;26.334;50.194;2023-03-03T08:25:31;75;71;
72793;PMS5003;63436;26.334;50.194;2023-03-03T08:27:56;70;68;
72793;PMS5003;63436;26.334;50.194;2023-03-03T08:30:22;65;62;
72793;PMS5003;63436;26.334;50.194;2023-03-03T08:32:48;68;63;
72793;PMS5003;63436;26.334;50.194;2023-03-03T08:35:12;69;64;
72793;PMS5003;63436;26.334;50.194;2023-03-03T08:37:38;69;67;
72793;PMS5003;63436;26.334;50.194;2023-03-03T08:40:04;67;64;
72793;PMS5003;63436;26.334;50.194;2023-03-03T08:42:29;74;69;
72793;PMS5003;63436;26.334;50.194;2023-03-03T08:44:54;66;64;
72793;PMS5003;63436;26.334;50.194;2023-03-03T08:47:19;67;65;
72793;PMS5003;63436;26.334;50.194;2023-03-03T08:49:45;66;66;
72793;PMS5003;63436;26.334;50.194;2023-03-03T08:52:11;61;60;
72793;PMS5003;63436;26.334;50.194;2023-03-03T08:54:36;59;56;
72793;PMS5003;63436;26.334;50.194;2023-03-03T08:57:02;56;54;
72793;PMS5003;63436;26.334;50.194;2023-03-03T08:59:27;59;57;
72793;PMS5003;63436;26.334;50.194;2023-03-03T09:01:53;58;57;
72793;PMS5003;63436;26.334;50.194;2023-03-03T09:04:19;61;56;
72793;PMS5003;63436;26.334;50.194;2023-03-03T09:06:44;65;63;
72793;PMS5003;63436;26.334;50.194;2023-03-03T09:09:11;59;56;
72793;PMS5003;63436;26.334;50.194;2023-03-03T09:11:35;61;58;
72793;PMS5003;63436;26.334;50.194;2023-03-03T09:14:04;55;53;
72793;PMS5003;63436;26.334;50.194;2023-03-03T09:16:27;61;58;
72793;PMS5003;63436;26.334;50.194;2023-03-03T09:18:51;60;55;
72793;PMS5003;63436;26.334;50.194;2023-03-03T09:21:20;58;57;
72793;PMS5003;63436;26.334;50.194;2023-03-03T09:23:42;55;53;
72793;PMS5003;63436;26.334;50.194;2023-03-03T09:28:33;57;57;
72793;PMS5003;63436;26.334;50.194;2023-03-03T09:31:00;60;54;
72793;PMS5003;63436;26.334;50.194;2023-03-03T09:33:25;54;50;
72793;PMS5003;63436;26.334;50.194;2023-03-03T09:35:51;51;49;
72793;PMS5003;63436;26.334;50.194;2023-03-03T09:38:19;53;52;
72793;PMS5003;63436;26.334;50.194;2023-03-03T09:40:46;56;52;
72793;PMS5003;63436;26.334;50.194;2023-03-03T09:43:07;53;52;
72793;PMS5003;63436;26.334;50.194;2023-03-03T09:45:36;52;51;
72793;PMS5003;63436;26.334;50.194;2023-03-03T09:48:07;54;53;
72793;PMS5003;63436;26.334;50.194;2023-03-03T09:50:26;61;55;
72793;PMS5003;63436;26.334;50.194;2023-03-03T09:52:50;56;54;
72793;PMS5003;63436;26.334;50.194;2023-03-03T09:55:17;60;55;
72793;PMS5003;63436;26.334;50.194;2023-03-03T09:57:43;54;54;
72793;PMS5003;63436;26.334;50.194;2023-03-03T10:00:08;51;50;
72793;PMS5003;63436;26.334;50.194;2023-03-03T10:02:32;49;49;
72793;PMS5003;63436;26.334;50.194;2023-03-03T10:04:59;50;49;
72793;PMS5003;63436;26.334;50.194;2023-03-03T10:07:24;50;49;
72793;PMS5003;63436;26.334;50.194;2023-03-03T10:09:52;53;51;
72793;PMS5003;63436;26.334;50.194;2023-03-03T10:12:11;47;47;
72793;PMS5003;63436;26.334;50.194;2023-03-03T10:14:45;45;45;
72793;PMS5003;63436;26.334;50.194;2023-03-03T10:17:06;57;51;
72793;PMS5003;63436;26.334;50.194;2023-03-03T10:19:31;53;51;
72793;PMS5003;63436;26.334;50.194;2023-03-03T10:21:54;50;49;
72793;PMS5003;63436;26.334;50.194;2023-03-03T10:24:21;56;48;
72793;PMS5003;63436;26.334;50.194;2023-03-03T10:26:48;57;54;
72793;PMS5003;63436;26.334;50.194;2023-03-03T10:29:14;52;50;
72793;PMS5003;63436;26.334;50.194;2023-03-03T10:31:38;56;51;
72793;PMS5003;63436;26.334;50.194;2023-03-03T10:34:02;48;46;
72793;PMS5003;63436;26.334;50.194;2023-03-03T10:36:30;49;49;
72793;PMS5003;63436;26.334;50.194;2023-03-03T10:38:54;56;51;
72793;PMS5003;63436;26.334;50.194;2023-03-03T10:41:21;51;51;
72793;PMS5003;63436;26.334;50.194;2023-03-03T10:43:47;59;51;
72793;PMS5003;63436;26.334;50.194;2023-03-03T10:46:11;53;49;
72793;PMS5003;63436;26.334;50.194;2023-03-03T10:48:37;55;50;
72793;PMS5003;63436;26.334;50.194;2023-03-03T10:51:00;46;46;
72793;PMS5003;63436;26.334;50.194;2023-03-03T10:53:27;51;48;
72793;PMS5003;63436;26.334;50.194;2023-03-03T10:55:53;52;50;
72793;PMS5003;63436;26.334;50.194;2023-03-03T10:58:19;54;48;
72793;PMS5003;63436;26.334;50.194;2023-03-03T11:00:42;49;48;
72793;PMS5003;63436;26.334;50.194;2023-03-03T11:05:32;51;47;
72793;PMS5003;63436;26.334;50.194;2023-03-03T11:07:58;48;45;
72793;PMS5003;63436;26.334;50.194;2023-03-03T11:10:27;48;46;
72793;PMS5003;63436;26.334;50.194;2023-03-03T11:12:51;50;49;
72793;PMS5003;63436;26.334;50.194;2023-03-03T11:15:20;58;54;
72793;PMS5003;63436;26.334;50.194;2023-03-03T11:17:45;55;48;
72793;PMS5003;63436;26.334;50.194;2023-03-03T11:20:07;49;48;
72793;PMS5003;63436;26.334;50.194;2023-03-03T11:22:34;50;50;
72793;PMS5003;63436;26.334;50.194;2023-03-03T11:25:00;49;45;
72793;PMS5003;63436;26.334;50.194;2023-03-03T11:27:25;54;48;
72793;PMS5003;63436;26.334;50.194;2023-03-03T11:29:52;49;49;
72793;PMS5003;63436;26.334;50.194;2023-03-03T11:32:17;51;48;
72793;PMS5003;63436;26.334;50.194;2023-03-03T11:34:44;51;51;
72793;PMS5003;63436;26.334;50.194;2023-03-03T11:37:05;56;52;
72793;PMS5003;63436;26.334;50.194;2023-03-03T11:39:29;59;52;
72793;PMS5003;63436;26.334;50.194;2023-03-03T11:41:57;50;48;
72793;PMS5003;63436;26.334;50.194;2023-03-03T11:44:21;56;49;
72793;PMS5003;63436;26.334;50.194;2023-03-03T11:46:46;57;54;
72793;PMS5003;63436;26.334;50.194;2023-03-03T11:49:13;50;49;
72793;PMS5003;63436;26.334;50.194;2023-03-03T11:51:40;55;54;
72793;PMS5003;63436;26.334;50.194;2023-03-03T11:54:03;50;50;
72793;PMS5003;63436;26.334;50.194;2023-03-03T11:56:29;57;53;
72793;PMS5003;63436;26.334;50.194;2023-03-03T11:58:55;57;55;
72793;PMS5003;63436;26.334;50.194;2023-03-03T12:01:19;63;54;
72793;PMS5003;63436;26.334;50.194;2023-03-03T12:03:44;68;61;
72793;PMS5003;63436;26.334;50.194;2023-03-03T12:06:12;55;50;
72793;PMS5003;63436;26.334;50.194;2023-03-03T12:08:37;60;57;
72793;PMS5003;63436;26.334;50.194;2023-03-03T12:11:01;54;53;
72793;PMS5003;63436;26.334;50.194;2023-03-03T12:13:26;61;58;
72793;PMS5003;63436;26.334;50.194;2023-03-03T12:15:52;67;61;
72793;PMS5003;63436;26.334;50.194;2023-03-03T12:18:29;60;55;
72793;PMS5003;63436;26.334;50.194;2023-03-03T12:23:11;59;57;
72793;PMS5003;63436;26.334;50.194;2023-03-03T12:25:34;65;60;
72793;PMS5003;63436;26.334;50.194;2023-03-03T12:28:00;56;56;
72793;PMS5003;63436;26.334;50.194;2023-03-03T12:30:28;62;57;
72793;PMS5003;63436;26.334;50.194;2023-03-03T12:32:53;57;56;
72793;PMS5003;63436;26.334;50.194;2023-03-03T12:35:17;57;56;
72793;PMS5003;63436;26.334;50.194;2023-03-03T12:37:46;59;58;
72793;PMS5003;63436;26.334;50.194;2023-03-03T12:40:07;60;58;
72793;PMS5003;63436;26.334;50.194;2023-03-03T12:42:40;59;56;
72793;PMS5003;63436;26.334;50.194;2023-03-03T12:44:59;61;58;
72793;PMS5003;63436;26.334;50.194;2023-03-03T12:47:23;61;58;
72793;PMS5003;63436;26.334;50.194;2023-03-03T12:49:51;65;57;
72793;PMS5003;63436;26.334;50.194;2023-03-03T12:52:15;61;56;
72793;PMS5003;63436;26.334;50.194;2023-03-03T12:54:42;62;59;
72793;PMS5003;63436;26.334;50.194;2023-03-03T12:57:06;60;57;
72793;PMS5003;63436;26.334;50.194;2023-03-03T12:59:31;61;58;
72793;PMS5003;63436;26.334;50.194;2023-03-03T13:01:59;58;56;
72793;PMS5003;63436;26.334;50.194;2023-03-03T13:04:26;62;59;
72793;PMS5003;63436;26.334;50.194;2023-03-03T13:06:45;64;58;
72793;PMS5003;63436;26.334;50.194;2023-03-03T13:09:14;65;65;
72793;PMS5003;63436;26.334;50.194;2023-03-03T13:11:38;64;60;
72793;PMS5003;63436;26.334;50.194;2023-03-03T13:14:02;65;62;
72793;PMS5003;63436;26.334;50.194;2023-03-03T13:16:28;66;61;
72793;PMS5003;63436;26.334;50.194;2023-03-03T13:18:52;60;56;
72793;PMS5003;63436;26.334;50.194;2023-03-03T13:21:17;63;62;
72793;PMS5003;63436;26.334;50.194;2023-03-03T13:23:44;63;58;
72793;PMS5003;63436;26.334;50.194;2023-03-03T13:26:09;59;58;
72793;PMS5003;63436;26.334;50.194;2023-03-03T13:28:33;60;58;
72793;PMS5003;63436;26.334;50.194;2023-03-03T13:31:01;71;67;
72793;PMS5003;63436;26.334;50.194;2023-03-03T13:33:24;67;62;
72793;PMS5003;63436;26.334;50.194;2023-03-03T13:35:49;67;63;
72793;PMS5003;63436;26.334;50.194;2023-03-03T13:38:17;72;68;
72793;PMS5003;63436;26.334;50.194;2023-03-03T13:40:41;72;67;
72793;PMS5003;63436;26.334;50.194;2023-03-03T13:43:09;70;67;
72793;PMS5003;63436;26.334;50.194;2023-03-03T13:45:34;69;63;
72793;PMS5003;63436;26.334;50.194;2023-03-03T13:48:00;64;60;
72793;PMS5003;63436;26.334;50.194;2023-03-03T13:50:22;63;61;
72793;PMS5003;63436;26.334;50.194;2023-03-03T13:52:51;71;67;
72793;PMS5003;63436;26.334;50.194;2023-03-03T13:55:17;74;71;
72793;PMS5003;63436;26.334;50.194;2023-03-03T13:57:43;82;75;
72793;PMS5003;63436;26.334;50.194;2023-03-03T14:00:06;76;71;
72793;PMS5003;63436;26.334;50.194;2023-03-03T14:04:57;71;70;
72793;PMS5003;63436;26.334;50.194;2023-03-03T14:07:22;77;72;
72793;PMS5003;63436;26.334;50.194;2023-03-03T14:09:50;74;70;
72793;PMS5003;63436;26.334;50.194;2023-03-03T14:12:13;73;69;
72793;PMS5003;63436;26.334;50.194;2023-03-03T14:14:41;76;71;
72793;PMS5003;63436;26.334;50.194;2023-03-03T14:17:04;75;72;
72793;PMS5003;63436;26.334;50.194;2023-03-03T14:19:29;85;80;
72793;PMS5003;63436;26.334;50.194;2023-03-03T14:22:00;79;75;
72793;PMS5003;63436;26.334;50.194;2023-03-03T14:24:20;82;77;
72793;PMS5003;63436;26.334;50.194;2023-03-03T14:26:45;87;84;
72793;PMS5003;63436;26.334;50.194;2023-03-03T14:29:15;90;86;
72793;PMS5003;63436;26.334;50.194;2023-03-03T14:31:37;79;78;
72793;PMS5003;63436;26.334;50.194;2023-03-03T14:34:01;83;81;
72793;PMS5003;63436;26.334;50.194;2023-03-03T14:36:26;92;89;
72793;PMS5003;63436;26.334;50.194;2023-03-03T14:38:50;83;80;
72793;PMS5003;63436;26.334;50.194;2023-03-03T14:41:17;91;87;
72793;PMS5003;63436;26.334;50.194;2023-03-03T14:43:42;89;85;
72793;PMS5003;63436;26.334;50.194;2023-03-03T14:48:34;95;89;
72793;PMS5003;63436;26.334;50.194;2023-03-03T14:50:58;88;86;
72793;PMS5003;63436;26.334;50.194;2023-03-03T14:53:31;96;91;
72793;PMS5003;63436;26.334;50.194;2023-03-03T14:55:50;92;90;
72793;PMS5003;63436;26.334;50.194;2023-03-03T14:58:24;85;83;
72793;PMS5003;63436;26.334;50.194;2023-03-03T15:00:40;83;83;
72793;PMS5003;63436;26.334;50.194;2023-03-03T15:05:33;89;85;
72793;PMS5003;63436;26.334;50.194;2023-03-03T15:07:57;97;92;
72793;PMS5003;63436;26.334;50.194;2023-03-03T15:10:27;92;89;
72793;PMS5003;63436;26.334;50.194;2023-03-03T15:12:48;78;76;
72793;PMS5003;63436;26.334;50.194;2023-03-03T15:15:17;94;91;
72793;PMS5003;63436;26.334;50.194;2023-03-03T15:17:40;92;87;
72793;PMS5003;63436;26.334;50.194;2023-03-03T15:24:56;91;90;
72793;PMS5003;63436;26.334;50.194;2023-03-03T15:27:21;96;93;
72793;PMS5003;63436;26.334;50.194;2023-03-03T15:29:48;82;82;
72793;PMS5003;63436;26.334;50.194;2023-03-03T15:32:12;84;81;
72793;PMS5003;63436;26.334;50.194;2023-03-03T15:34:37;90;86;
72793;PMS5003;63436;26.334;50.194;2023-03-03T15:37:03;89;85;
72793;PMS5003;63436;26.334;50.194;2023-03-03T15:39:27;84;84;
72793;PMS5003;63436;26.334;50.194;2023-03-03T15:41:55;91;87;
72793;PMS5003;63436;26.334;50.194;2023-03-03T15:44:18;85;81;
72793;PMS5003;63436;26.334;50.194;2023-03-03T15:46:46;89;88;
72793;PMS5003;63436;26.334;50.194;2023-03-03T15:49:12;85;83;
72793;PMS5003;63436;26.334;50.194;2023-03-03T15:51:42;84;80;
72793;PMS5003;63436;26.334;50.194;2023-03-03T15:54:03;87;86;
72793;PMS5003;63436;26.334;50.194;2023-03-03T15:56:25;84;79;
72793;PMS5003;63436;26.334;50.194;2023-03-03T15:58:53;84;83;
72793;PMS5003;63436;26.334;50.194;2023-03-03T16:01:16;88;81;
72793;PMS5003;63436;26.334;50.194;2023-03-03T16:03:40;80;79;
72793;PMS5003;63436;26.334;50.194;2023-03-03T16:06:05;86;81;